sensor_id;sensor_type;location;lat;lon;timestamp;P1;durP1;ratioP1;P2;durP2;ratioP2
21046;SDS011;10682;50.874;3.656;2022-08-25T00:01:55;8.07;;;5.70;;
21046;SDS011;10682;50.874;3.656;2022-08-25T00:04:28;7.10;;;4.93;;
21046;SDS011;10682;50.874;3.656;2022-08-25T00:06:55;9.25;;;5.80;;
21046;SDS011;10682;50.874;3.656;2022-08-25T00:09:28;9.68;;;5.95;;
21046;SDS011;10682;50.874;3.656;2022-08-25T00:11:57;8.73;;;6.18;;
21046;SDS011;10682;50.874;3.656;2022-08-25T00:14:26;7.97;;;6.15;;
21046;SDS011;10682;50.874;3.656;2022-08-25T00:16:58;6.90;;;5.43;;
21046;SDS011;10682;50.874;3.656;2022-08-25T00:19:27;10.23;;;6.93;;
21046;SDS011;10682;50.874;3.656;2022-08-25T00:21:58;8.45;;;6.90;;
21046;SDS011;10682;50.874;3.656;2022-08-25T00:24:26;9.18;;;6.57;;
21046;SDS011;10682;50.874;3.656;2022-08-25T00:26:55;8.88;;;7.13;;
21046;SDS011;10682;50.874;3.656;2022-08-25T00:29:24;9.45;;;6.45;;
21046;SDS011;10682;50.874;3.656;2022-08-25T00:31:52;9.00;;;6.30;;
21046;SDS011;10682;50.874;3.656;2022-08-25T00:34:22;8.65;;;5.75;;
21046;SDS011;10682;50.874;3.656;2022-08-25T00:36:53;10.98;;;6.72;;
21046;SDS011;10682;50.874;3.656;2022-08-25T00:39:21;8.80;;;6.40;;
21046;SDS011;10682;50.874;3.656;2022-08-25T00:41:49;8.90;;;6.80;;
21046;SDS011;10682;50.874;3.656;2022-08-25T00:44:23;9.20;;;6.43;;
21046;SDS011;10682;50.874;3.656;2022-08-25T00:46:54;10.10;;;8.77;;
21046;SDS011;10682;50.874;3.656;2022-08-25T00:49:24;12.32;;;7.53;;
21046;SDS011;10682;50.874;3.656;2022-08-25T00:54:37;11.40;;;7.20;;
21046;SDS011;10682;50.874;3.656;2022-08-25T00:57:14;10.77;;;7.25;;
21046;SDS011;10682;50.874;3.656;2022-08-25T00:59:54;13.75;;;8.70;;
21046;SDS011;10682;50.874;3.656;2022-08-25T01:02:22;9.30;;;7.18;;
21046;SDS011;10682;50.874;3.656;2022-08-25T01:04:49;12.50;;;7.35;;
21046;SDS011;10682;50.874;3.656;2022-08-25T01:07:19;10.27;;;8.40;;
21046;SDS011;10682;50.874;3.656;2022-08-25T01:09:49;12.18;;;9.20;;
21046;SDS011;10682;50.874;3.656;2022-08-25T01:12:18;12.38;;;8.60;;
21046;SDS011;10682;50.874;3.656;2022-08-25T01:14:46;11.40;;;7.55;;
21046;SDS011;10682;50.874;3.656;2022-08-25T01:17:15;13.25;;;9.18;;
21046;SDS011;10682;50.874;3.656;2022-08-25T01:19:47;13.07;;;9.15;;
21046;SDS011;10682;50.874;3.656;2022-08-25T01:22:13;16.35;;;7.88;;
21046;SDS011;10682;50.874;3.656;2022-08-25T01:25:01;11.25;;;7.78;;
21046;SDS011;10682;50.874;3.656;2022-08-25T01:27:54;10.40;;;8.10;;
21046;SDS011;10682;50.874;3.656;2022-08-25T01:30:22;12.43;;;8.55;;
21046;SDS011;10682;50.874;3.656;2022-08-25T01:32:50;11.55;;;7.80;;
21046;SDS011;10682;50.874;3.656;2022-08-25T01:35:17;9.27;;;7.50;;
21046;SDS011;10682;50.874;3.656;2022-08-25T01:37:44;9.95;;;7.55;;
21046;SDS011;10682;50.874;3.656;2022-08-25T01:40:11;11.52;;;8.60;;
21046;SDS011;10682;50.874;3.656;2022-08-25T01:45:28;8.45;;;6.40;;
21046;SDS011;10682;50.874;3.656;2022-08-25T01:47:55;11.25;;;7.30;;
21046;SDS011;10682;50.874;3.656;2022-08-25T01:50:22;11.35;;;8.05;;
21046;SDS011;10682;50.874;3.656;2022-08-25T01:55:30;11.25;;;7.13;;
21046;SDS011;10682;50.874;3.656;2022-08-25T01:58:17;11.45;;;7.53;;
21046;SDS011;10682;50.874;3.656;2022-08-25T02:00:51;10.32;;;7.53;;
21046;SDS011;10682;50.874;3.656;2022-08-25T02:03:22;9.52;;;6.80;;
21046;SDS011;10682;50.874;3.656;2022-08-25T02:05:51;9.95;;;8.00;;
21046;SDS011;10682;50.874;3.656;2022-08-25T02:08:20;12.98;;;9.00;;
21046;SDS011;10682;50.874;3.656;2022-08-25T02:11:00;10.20;;;7.80;;
21046;SDS011;10682;50.874;3.656;2022-08-25T02:13:41;11.98;;;9.50;;
21046;SDS011;10682;50.874;3.656;2022-08-25T02:16:09;10.48;;;8.02;;
21046;SDS011;10682;50.874;3.656;2022-08-25T02:18:42;8.55;;;6.97;;
21046;SDS011;10682;50.874;3.656;2022-08-25T02:21:11;12.95;;;7.50;;
21046;SDS011;10682;50.874;3.656;2022-08-25T02:23:40;12.07;;;7.53;;
21046;SDS011;10682;50.874;3.656;2022-08-25T02:26:08;9.50;;;7.22;;
21046;SDS011;10682;50.874;3.656;2022-08-25T02:28:35;10.45;;;7.07;;
21046;SDS011;10682;50.874;3.656;2022-08-25T02:31:04;9.20;;;7.07;;
21046;SDS011;10682;50.874;3.656;2022-08-25T02:33:31;9.32;;;7.47;;
21046;SDS011;10682;50.874;3.656;2022-08-25T02:35:58;11.90;;;8.85;;
21046;SDS011;10682;50.874;3.656;2022-08-25T02:38:26;13.63;;;8.55;;
21046;SDS011;10682;50.874;3.656;2022-08-25T02:40:55;10.60;;;8.57;;
21046;SDS011;10682;50.874;3.656;2022-08-25T02:43:24;10.45;;;8.75;;
21046;SDS011;10682;50.874;3.656;2022-08-25T02:45:52;14.68;;;8.75;;
21046;SDS011;10682;50.874;3.656;2022-08-25T02:48:20;11.57;;;9.15;;
21046;SDS011;10682;50.874;3.656;2022-08-25T02:50:49;14.18;;;10.63;;
21046;SDS011;10682;50.874;3.656;2022-08-25T02:53:19;12.45;;;9.60;;
21046;SDS011;10682;50.874;3.656;2022-08-25T02:55:46;14.70;;;11.55;;
21046;SDS011;10682;50.874;3.656;2022-08-25T02:58:14;14.30;;;9.98;;
21046;SDS011;10682;50.874;3.656;2022-08-25T03:00:41;15.35;;;10.10;;
21046;SDS011;10682;50.874;3.656;2022-08-25T03:03:08;13.88;;;10.30;;
21046;SDS011;10682;50.874;3.656;2022-08-25T03:05:39;12.98;;;10.05;;
21046;SDS011;10682;50.874;3.656;2022-08-25T03:08:13;14.70;;;10.63;;
21046;SDS011;10682;50.874;3.656;2022-08-25T03:10:43;14.27;;;11.27;;
21046;SDS011;10682;50.874;3.656;2022-08-25T03:13:12;21.17;;;14.00;;
21046;SDS011;10682;50.874;3.656;2022-08-25T03:15:39;16.50;;;12.13;;
21046;SDS011;10682;50.874;3.656;2022-08-25T03:18:07;15.77;;;11.25;;
21046;SDS011;10682;50.874;3.656;2022-08-25T03:20:39;16.10;;;10.88;;
21046;SDS011;10682;50.874;3.656;2022-08-25T03:23:06;18.52;;;11.82;;
21046;SDS011;10682;50.874;3.656;2022-08-25T03:25:33;13.60;;;11.00;;
21046;SDS011;10682;50.874;3.656;2022-08-25T03:28:20;19.92;;;12.02;;
21046;SDS011;10682;50.874;3.656;2022-08-25T03:30:55;16.48;;;11.73;;
21046;SDS011;10682;50.874;3.656;2022-08-25T03:33:22;13.52;;;10.32;;
21046;SDS011;10682;50.874;3.656;2022-08-25T03:35:49;20.15;;;11.23;;
21046;SDS011;10682;50.874;3.656;2022-08-25T03:38:16;15.32;;;10.80;;
21046;SDS011;10682;50.874;3.656;2022-08-25T03:40:43;15.07;;;10.55;;
21046;SDS011;10682;50.874;3.656;2022-08-25T03:43:10;11.73;;;9.50;;
21046;SDS011;10682;50.874;3.656;2022-08-25T03:45:41;14.20;;;10.68;;
21046;SDS011;10682;50.874;3.656;2022-08-25T03:48:10;11.35;;;9.05;;
21046;SDS011;10682;50.874;3.656;2022-08-25T03:50:42;10.05;;;8.52;;
21046;SDS011;10682;50.874;3.656;2022-08-25T03:53:17;13.80;;;8.18;;
21046;SDS011;10682;50.874;3.656;2022-08-25T03:55:45;11.77;;;8.05;;
21046;SDS011;10682;50.874;3.656;2022-08-25T03:58:13;10.77;;;9.15;;
21046;SDS011;10682;50.874;3.656;2022-08-25T04:00:40;14.25;;;10.88;;
21046;SDS011;10682;50.874;3.656;2022-08-25T04:03:07;17.38;;;11.38;;
21046;SDS011;10682;50.874;3.656;2022-08-25T04:05:34;13.15;;;10.15;;
21046;SDS011;10682;50.874;3.656;2022-08-25T04:08:01;12.30;;;8.45;;
21046;SDS011;10682;50.874;3.656;2022-08-25T04:10:30;9.27;;;7.47;;
21046;SDS011;10682;50.874;3.656;2022-08-25T04:12:57;9.73;;;7.97;;
21046;SDS011;10682;50.874;3.656;2022-08-25T04:15:24;10.18;;;7.50;;
21046;SDS011;10682;50.874;3.656;2022-08-25T04:17:55;10.45;;;9.05;;
21046;SDS011;10682;50.874;3.656;2022-08-25T04:20:24;11.63;;;9.13;;
21046;SDS011;10682;50.874;3.656;2022-08-25T04:22:52;15.52;;;10.90;;
21046;SDS011;10682;50.874;3.656;2022-08-25T04:25:18;17.60;;;13.05;;
21046;SDS011;10682;50.874;3.656;2022-08-25T04:27:45;16.33;;;12.48;;
21046;SDS011;10682;50.874;3.656;2022-08-25T04:30:13;18.23;;;13.73;;
21046;SDS011;10682;50.874;3.656;2022-08-25T04:32:40;20.13;;;14.63;;
21046;SDS011;10682;50.874;3.656;2022-08-25T04:35:07;21.08;;;15.20;;
21046;SDS011;10682;50.874;3.656;2022-08-25T04:37:35;24.52;;;15.65;;
21046;SDS011;10682;50.874;3.656;2022-08-25T04:40:02;22.00;;;16.77;;
21046;SDS011;10682;50.874;3.656;2022-08-25T04:42:30;22.95;;;17.52;;
21046;SDS011;10682;50.874;3.656;2022-08-25T04:44:57;21.83;;;17.00;;
21046;SDS011;10682;50.874;3.656;2022-08-25T04:47:27;22.13;;;16.48;;
21046;SDS011;10682;50.874;3.656;2022-08-25T04:49:54;22.67;;;15.82;;
21046;SDS011;10682;50.874;3.656;2022-08-25T04:52:21;18.20;;;14.27;;
21046;SDS011;10682;50.874;3.656;2022-08-25T04:54:48;20.45;;;13.77;;
21046;SDS011;10682;50.874;3.656;2022-08-25T04:57:15;19.23;;;14.65;;
21046;SDS011;10682;50.874;3.656;2022-08-25T04:59:41;23.23;;;15.55;;
21046;SDS011;10682;50.874;3.656;2022-08-25T05:02:08;23.23;;;16.38;;
21046;SDS011;10682;50.874;3.656;2022-08-25T05:04:35;18.23;;;13.93;;
21046;SDS011;10682;50.874;3.656;2022-08-25T05:07:06;19.73;;;14.35;;
21046;SDS011;10682;50.874;3.656;2022-08-25T05:09:34;20.83;;;14.93;;
21046;SDS011;10682;50.874;3.656;2022-08-25T05:12:01;20.48;;;14.48;;
21046;SDS011;10682;50.874;3.656;2022-08-25T05:14:30;20.77;;;14.30;;
21046;SDS011;10682;50.874;3.656;2022-08-25T05:16:57;23.00;;;16.70;;
21046;SDS011;10682;50.874;3.656;2022-08-25T05:19:25;21.38;;;15.98;;
21046;SDS011;10682;50.874;3.656;2022-08-25T05:21:56;20.30;;;15.40;;
21046;SDS011;10682;50.874;3.656;2022-08-25T05:24:23;19.10;;;15.65;;
21046;SDS011;10682;50.874;3.656;2022-08-25T05:26:51;18.70;;;14.52;;
21046;SDS011;10682;50.874;3.656;2022-08-25T05:29:18;30.17;;;17.95;;
21046;SDS011;10682;50.874;3.656;2022-08-25T05:31:46;20.27;;;16.30;;
21046;SDS011;10682;50.874;3.656;2022-08-25T05:34:16;20.45;;;14.80;;
21046;SDS011;10682;50.874;3.656;2022-08-25T05:36:44;23.98;;;15.80;;
21046;SDS011;10682;50.874;3.656;2022-08-25T05:39:12;18.48;;;15.00;;
21046;SDS011;10682;50.874;3.656;2022-08-25T05:41:39;25.77;;;16.63;;
21046;SDS011;10682;50.874;3.656;2022-08-25T05:44:06;21.33;;;14.82;;
21046;SDS011;10682;50.874;3.656;2022-08-25T05:46:33;22.65;;;16.92;;
21046;SDS011;10682;50.874;3.656;2022-08-25T05:49:00;22.30;;;14.23;;
21046;SDS011;10682;50.874;3.656;2022-08-25T05:51:27;23.77;;;16.05;;
21046;SDS011;10682;50.874;3.656;2022-08-25T05:53:54;26.13;;;16.30;;
21046;SDS011;10682;50.874;3.656;2022-08-25T05:56:21;21.33;;;16.50;;
21046;SDS011;10682;50.874;3.656;2022-08-25T05:58:49;19.50;;;13.85;;
21046;SDS011;10682;50.874;3.656;2022-08-25T06:01:21;16.63;;;12.13;;
21046;SDS011;10682;50.874;3.656;2022-08-25T06:04:12;20.92;;;15.02;;
21046;SDS011;10682;50.874;3.656;2022-08-25T06:06:43;22.70;;;14.80;;
21046;SDS011;10682;50.874;3.656;2022-08-25T06:09:10;25.25;;;14.32;;
21046;SDS011;10682;50.874;3.656;2022-08-25T06:11:37;21.92;;;15.07;;
21046;SDS011;10682;50.874;3.656;2022-08-25T06:14:08;19.30;;;13.00;;
21046;SDS011;10682;50.874;3.656;2022-08-25T06:16:39;18.23;;;13.13;;
21046;SDS011;10682;50.874;3.656;2022-08-25T06:19:07;14.65;;;11.52;;
21046;SDS011;10682;50.874;3.656;2022-08-25T06:21:36;15.15;;;11.23;;
21046;SDS011;10682;50.874;3.656;2022-08-25T06:24:05;18.40;;;10.88;;
21046;SDS011;10682;50.874;3.656;2022-08-25T06:26:39;19.60;;;11.60;;
21046;SDS011;10682;50.874;3.656;2022-08-25T06:29:06;16.13;;;10.27;;
21046;SDS011;10682;50.874;3.656;2022-08-25T06:31:33;13.52;;;9.50;;
21046;SDS011;10682;50.874;3.656;2022-08-25T06:34:01;12.73;;;7.72;;
21046;SDS011;10682;50.874;3.656;2022-08-25T06:36:28;11.55;;;7.90;;
21046;SDS011;10682;50.874;3.656;2022-08-25T06:38:55;10.30;;;7.57;;
21046;SDS011;10682;50.874;3.656;2022-08-25T06:41:26;8.48;;;7.00;;
21046;SDS011;10682;50.874;3.656;2022-08-25T06:44:02;17.00;;;8.45;;
21046;SDS011;10682;50.874;3.656;2022-08-25T06:46:30;12.95;;;9.13;;
21046;SDS011;10682;50.874;3.656;2022-08-25T06:49:02;13.68;;;8.93;;
21046;SDS011;10682;50.874;3.656;2022-08-25T06:51:31;16.50;;;9.50;;
21046;SDS011;10682;50.874;3.656;2022-08-25T06:54:00;17.85;;;8.95;;
21046;SDS011;10682;50.874;3.656;2022-08-25T06:56:27;18.45;;;9.48;;
21046;SDS011;10682;50.874;3.656;2022-08-25T06:58:54;15.70;;;9.43;;
21046;SDS011;10682;50.874;3.656;2022-08-25T07:01:22;14.25;;;7.55;;
21046;SDS011;10682;50.874;3.656;2022-08-25T07:03:53;14.38;;;7.13;;
21046;SDS011;10682;50.874;3.656;2022-08-25T07:06:25;9.07;;;5.75;;
21046;SDS011;10682;50.874;3.656;2022-08-25T07:08:56;10.82;;;5.82;;
21046;SDS011;10682;50.874;3.656;2022-08-25T07:11:23;7.95;;;5.35;;
21046;SDS011;10682;50.874;3.656;2022-08-25T07:13:54;12.45;;;5.28;;
21046;SDS011;10682;50.874;3.656;2022-08-25T07:16:21;14.02;;;5.22;;
21046;SDS011;10682;50.874;3.656;2022-08-25T07:18:55;7.78;;;4.90;;
21046;SDS011;10682;50.874;3.656;2022-08-25T07:21:25;7.47;;;4.25;;
21046;SDS011;10682;50.874;3.656;2022-08-25T07:23:58;6.47;;;3.63;;
21046;SDS011;10682;50.874;3.656;2022-08-25T07:26:32;6.65;;;3.40;;
21046;SDS011;10682;50.874;3.656;2022-08-25T07:29:12;5.60;;;3.10;;
21046;SDS011;10682;50.874;3.656;2022-08-25T07:31:44;6.75;;;3.40;;
21046;SDS011;10682;50.874;3.656;2022-08-25T07:34:12;7.20;;;3.50;;
21046;SDS011;10682;50.874;3.656;2022-08-25T07:36:59;8.75;;;3.40;;
21046;SDS011;10682;50.874;3.656;2022-08-25T07:39:30;7.85;;;3.30;;
21046;SDS011;10682;50.874;3.656;2022-08-25T07:42:01;5.88;;;2.90;;
21046;SDS011;10682;50.874;3.656;2022-08-25T07:44:28;7.20;;;3.42;;
21046;SDS011;10682;50.874;3.656;2022-08-25T07:46:56;8.48;;;3.15;;
21046;SDS011;10682;50.874;3.656;2022-08-25T07:49:24;8.25;;;2.80;;
21046;SDS011;10682;50.874;3.656;2022-08-25T07:52:04;5.70;;;2.60;;
21046;SDS011;10682;50.874;3.656;2022-08-25T07:54:34;5.85;;;2.60;;
21046;SDS011;10682;50.874;3.656;2022-08-25T07:57:03;8.15;;;2.63;;
21046;SDS011;10682;50.874;3.656;2022-08-25T07:59:34;5.95;;;2.38;;
21046;SDS011;10682;50.874;3.656;2022-08-25T08:02:07;8.23;;;2.50;;
21046;SDS011;10682;50.874;3.656;2022-08-25T08:04:44;7.55;;;2.38;;
21046;SDS011;10682;50.874;3.656;2022-08-25T08:07:20;7.90;;;2.25;;
21046;SDS011;10682;50.874;3.656;2022-08-25T08:10:09;5.53;;;2.42;;
21046;SDS011;10682;50.874;3.656;2022-08-25T08:12:59;4.65;;;2.20;;
21046;SDS011;10682;50.874;3.656;2022-08-25T08:15:27;5.72;;;2.40;;
21046;SDS011;10682;50.874;3.656;2022-08-25T08:17:55;8.23;;;2.50;;
21046;SDS011;10682;50.874;3.656;2022-08-25T08:20:24;5.15;;;2.38;;
21046;SDS011;10682;50.874;3.656;2022-08-25T08:22:53;10.55;;;2.42;;
21046;SDS011;10682;50.874;3.656;2022-08-25T08:25:21;4.88;;;2.40;;
21046;SDS011;10682;50.874;3.656;2022-08-25T08:27:52;6.30;;;2.30;;
21046;SDS011;10682;50.874;3.656;2022-08-25T08:30:20;5.47;;;2.00;;
21046;SDS011;10682;50.874;3.656;2022-08-25T08:32:52;8.52;;;2.40;;
21046;SDS011;10682;50.874;3.656;2022-08-25T08:35:39;3.13;;;2.10;;
21046;SDS011;10682;50.874;3.656;2022-08-25T08:38:07;4.40;;;2.35;;
21046;SDS011;10682;50.874;3.656;2022-08-25T08:40:46;3.38;;;2.20;;
21046;SDS011;10682;50.874;3.656;2022-08-25T08:58:14;5.47;;;2.05;;
21046;SDS011;10682;50.874;3.656;2022-08-25T09:01:06;5.18;;;2.00;;
21046;SDS011;10682;50.874;3.656;2022-08-25T09:03:40;6.13;;;2.17;;
21046;SDS011;10682;50.874;3.656;2022-08-25T09:06:46;3.55;;;1.70;;
21046;SDS011;10682;50.874;3.656;2022-08-25T09:09:15;3.13;;;1.92;;
21046;SDS011;10682;50.874;3.656;2022-08-25T09:18:00;2.72;;;1.70;;
21046;SDS011;10682;50.874;3.656;2022-08-25T09:23:33;7.38;;;1.95;;
21046;SDS011;10682;50.874;3.656;2022-08-25T09:26:28;3.92;;;2.00;;
21046;SDS011;10682;50.874;3.656;2022-08-25T09:29:06;6.00;;;2.20;;
21046;SDS011;10682;50.874;3.656;2022-08-25T09:31:50;7.55;;;1.90;;
21046;SDS011;10682;50.874;3.656;2022-08-25T09:34:24;4.00;;;1.92;;
21046;SDS011;10682;50.874;3.656;2022-08-25T09:36:58;3.22;;;1.70;;
21046;SDS011;10682;50.874;3.656;2022-08-25T09:39:26;3.30;;;1.83;;
21046;SDS011;10682;50.874;3.656;2022-08-25T09:41:56;5.68;;;2.00;;
21046;SDS011;10682;50.874;3.656;2022-08-25T09:44:32;4.85;;;2.05;;
21046;SDS011;10682;50.874;3.656;2022-08-25T09:49:50;3.78;;;2.13;;
21046;SDS011;10682;50.874;3.656;2022-08-25T09:52:31;8.57;;;2.25;;
21046;SDS011;10682;50.874;3.656;2022-08-25T10:02:40;8.23;;;2.42;;
21046;SDS011;10682;50.874;3.656;2022-08-25T10:05:19;5.45;;;2.08;;
21046;SDS011;10682;50.874;3.656;2022-08-25T10:07:53;5.57;;;2.20;;
21046;SDS011;10682;50.874;3.656;2022-08-25T10:13:00;5.10;;;2.40;;
21046;SDS011;10682;50.874;3.656;2022-08-25T10:21:13;8.75;;;2.42;;
21046;SDS011;10682;50.874;3.656;2022-08-25T10:23:48;3.15;;;1.95;;
21046;SDS011;10682;50.874;3.656;2022-08-25T10:26:41;2.97;;;2.08;;
21046;SDS011;10682;50.874;3.656;2022-08-25T10:35:11;7.70;;;2.08;;
21046;SDS011;10682;50.874;3.656;2022-08-25T10:37:51;4.40;;;1.90;;
21046;SDS011;10682;50.874;3.656;2022-08-25T10:44:02;2.85;;;1.77;;
21046;SDS011;10682;50.874;3.656;2022-08-25T10:50:12;5.38;;;2.03;;
21046;SDS011;10682;50.874;3.656;2022-08-25T10:53:10;8.02;;;1.88;;
21046;SDS011;10682;50.874;3.656;2022-08-25T11:04:47;5.53;;;2.20;;
21046;SDS011;10682;50.874;3.656;2022-08-25T11:07:30;7.05;;;2.13;;
21046;SDS011;10682;50.874;3.656;2022-08-25T11:10:39;6.07;;;2.50;;
21046;SDS011;10682;50.874;3.656;2022-08-25T11:13:25;7.53;;;2.58;;
21046;SDS011;10682;50.874;3.656;2022-08-25T11:16:14;16.00;;;2.90;;
21046;SDS011;10682;50.874;3.656;2022-08-25T11:30:36;14.07;;;3.28;;
21046;SDS011;10682;50.874;3.656;2022-08-25T11:33:05;9.55;;;3.38;;
21046;SDS011;10682;50.874;3.656;2022-08-25T11:35:38;9.32;;;3.03;;
21046;SDS011;10682;50.874;3.656;2022-08-25T11:38:26;9.00;;;3.15;;
21046;SDS011;10682;50.874;3.656;2022-08-25T11:53:31;10.85;;;4.72;;
21046;SDS011;10682;50.874;3.656;2022-08-25T11:56:11;10.25;;;5.07;;
21046;SDS011;10682;50.874;3.656;2022-08-25T11:59:00;12.18;;;5.20;;
21046;SDS011;10682;50.874;3.656;2022-08-25T12:12:35;15.57;;;6.40;;
21046;SDS011;10682;50.874;3.656;2022-08-25T12:21:12;9.60;;;4.80;;
21046;SDS011;10682;50.874;3.656;2022-08-25T12:24:03;11.57;;;4.47;;
21046;SDS011;10682;50.874;3.656;2022-08-25T12:26:39;14.60;;;5.90;;
21046;SDS011;10682;50.874;3.656;2022-08-25T12:29:19;12.43;;;6.07;;
21046;SDS011;10682;50.874;3.656;2022-08-25T12:40:35;10.27;;;4.25;;
21046;SDS011;10682;50.874;3.656;2022-08-25T12:45:53;7.00;;;4.53;;
21046;SDS011;10682;50.874;3.656;2022-08-25T12:54:15;10.88;;;5.75;;
21046;SDS011;10682;50.874;3.656;2022-08-25T12:56:51;14.77;;;7.40;;
21046;SDS011;10682;50.874;3.656;2022-08-25T12:59:34;12.75;;;6.15;;
21046;SDS011;10682;50.874;3.656;2022-08-25T13:08:56;15.15;;;6.05;;
21046;SDS011;10682;50.874;3.656;2022-08-25T13:15:41;12.23;;;7.10;;
21046;SDS011;10682;50.874;3.656;2022-08-25T13:18:21;15.38;;;7.88;;
21046;SDS011;10682;50.874;3.656;2022-08-25T13:23:43;15.57;;;6.90;;
21046;SDS011;10682;50.874;3.656;2022-08-25T13:28:54;11.93;;;7.43;;
21046;SDS011;10682;50.874;3.656;2022-08-25T13:31:35;12.85;;;8.23;;
21046;SDS011;10682;50.874;3.656;2022-08-25T13:34:07;13.15;;;7.10;;
21046;SDS011;10682;50.874;3.656;2022-08-25T13:36:46;13.27;;;7.50;;
21046;SDS011;10682;50.874;3.656;2022-08-25T13:39:33;10.68;;;5.68;;
21046;SDS011;10682;50.874;3.656;2022-08-25T13:42:21;10.57;;;5.95;;
21046;SDS011;10682;50.874;3.656;2022-08-25T13:44:54;10.95;;;7.00;;
21046;SDS011;10682;50.874;3.656;2022-08-25T13:47:34;11.27;;;6.13;;
21046;SDS011;10682;50.874;3.656;2022-08-25T13:50:21;10.75;;;6.43;;
21046;SDS011;10682;50.874;3.656;2022-08-25T13:52:53;9.13;;;6.03;;
21046;SDS011;10682;50.874;3.656;2022-08-25T13:55:38;10.50;;;6.22;;
21046;SDS011;10682;50.874;3.656;2022-08-25T13:58:22;12.85;;;8.27;;
21046;SDS011;10682;50.874;3.656;2022-08-25T14:04:21;16.60;;;8.50;;
21046;SDS011;10682;50.874;3.656;2022-08-25T14:12:42;19.42;;;11.13;;
21046;SDS011;10682;50.874;3.656;2022-08-25T14:17:48;22.08;;;13.70;;
21046;SDS011;10682;50.874;3.656;2022-08-25T14:20:52;23.27;;;14.60;;
21046;SDS011;10682;50.874;3.656;2022-08-25T14:23:22;20.65;;;14.68;;
21046;SDS011;10682;50.874;3.656;2022-08-25T14:25:56;25.27;;;16.88;;
21046;SDS011;10682;50.874;3.656;2022-08-25T14:28:25;24.83;;;15.73;;
21046;SDS011;10682;50.874;3.656;2022-08-25T14:31:08;25.52;;;17.10;;
21046;SDS011;10682;50.874;3.656;2022-08-25T14:33:55;33.75;;;19.17;;
21046;SDS011;10682;50.874;3.656;2022-08-25T14:36:26;28.38;;;21.63;;
21046;SDS011;10682;50.874;3.656;2022-08-25T14:38:55;35.42;;;22.60;;
21046;SDS011;10682;50.874;3.656;2022-08-25T14:41:23;32.13;;;20.17;;
21046;SDS011;10682;50.874;3.656;2022-08-25T14:43:52;30.77;;;18.38;;
21046;SDS011;10682;50.874;3.656;2022-08-25T14:46:20;27.88;;;18.35;;
21046;SDS011;10682;50.874;3.656;2022-08-25T14:48:53;29.30;;;18.10;;
21046;SDS011;10682;50.874;3.656;2022-08-25T14:51:25;26.48;;;17.20;;
21046;SDS011;10682;50.874;3.656;2022-08-25T14:53:56;24.92;;;15.35;;
21046;SDS011;10682;50.874;3.656;2022-08-25T14:56:28;23.83;;;13.43;;
21046;SDS011;10682;50.874;3.656;2022-08-25T14:58:56;22.52;;;11.98;;
21046;SDS011;10682;50.874;3.656;2022-08-25T15:01:24;16.58;;;10.10;;
21046;SDS011;10682;50.874;3.656;2022-08-25T15:04:05;16.08;;;11.27;;
21046;SDS011;10682;50.874;3.656;2022-08-25T15:06:36;17.42;;;10.45;;
21046;SDS011;10682;50.874;3.656;2022-08-25T15:09:10;18.42;;;10.35;;
21046;SDS011;10682;50.874;3.656;2022-08-25T15:11:42;15.23;;;9.23;;
21046;SDS011;10682;50.874;3.656;2022-08-25T15:14:19;14.23;;;9.00;;
21046;SDS011;10682;50.874;3.656;2022-08-25T15:17:01;17.40;;;10.82;;
21046;SDS011;10682;50.874;3.656;2022-08-25T15:19:28;19.80;;;10.82;;
21046;SDS011;10682;50.874;3.656;2022-08-25T15:21:55;18.67;;;11.02;;
21046;SDS011;10682;50.874;3.656;2022-08-25T15:24:25;15.43;;;9.48;;
21046;SDS011;10682;50.874;3.656;2022-08-25T15:26:54;19.48;;;10.88;;
21046;SDS011;10682;50.874;3.656;2022-08-25T15:29:25;18.30;;;9.95;;
21046;SDS011;10682;50.874;3.656;2022-08-25T15:31:55;19.30;;;9.60;;
21046;SDS011;10682;50.874;3.656;2022-08-25T15:34:24;16.38;;;8.45;;
21046;SDS011;10682;50.874;3.656;2022-08-25T15:36:51;13.70;;;7.70;;
21046;SDS011;10682;50.874;3.656;2022-08-25T15:39:19;20.60;;;9.18;;
21046;SDS011;10682;50.874;3.656;2022-08-25T15:41:47;18.23;;;8.05;;
21046;SDS011;10682;50.874;3.656;2022-08-25T15:44:15;16.48;;;8.70;;
21046;SDS011;10682;50.874;3.656;2022-08-25T15:46:44;14.25;;;7.93;;
21046;SDS011;10682;50.874;3.656;2022-08-25T15:49:15;19.58;;;7.13;;
21046;SDS011;10682;50.874;3.656;2022-08-25T15:51:48;23.17;;;7.85;;
21046;SDS011;10682;50.874;3.656;2022-08-25T15:54:26;21.02;;;8.80;;
21046;SDS011;10682;50.874;3.656;2022-08-25T15:56:56;19.73;;;8.35;;
21046;SDS011;10682;50.874;3.656;2022-08-25T15:59:27;18.58;;;8.07;;
21046;SDS011;10682;50.874;3.656;2022-08-25T16:01:55;21.92;;;7.10;;
21046;SDS011;10682;50.874;3.656;2022-08-25T16:04:23;22.25;;;8.10;;
21046;SDS011;10682;50.874;3.656;2022-08-25T16:06:52;18.17;;;7.57;;
21046;SDS011;10682;50.874;3.656;2022-08-25T16:09:20;22.48;;;8.40;;
21046;SDS011;10682;50.874;3.656;2022-08-25T16:11:49;18.25;;;8.18;;
21046;SDS011;10682;50.874;3.656;2022-08-25T16:14:22;18.88;;;9.15;;
21046;SDS011;10682;50.874;3.656;2022-08-25T16:16:51;24.13;;;9.43;;
21046;SDS011;10682;50.874;3.656;2022-08-25T16:19:18;25.25;;;9.65;;
21046;SDS011;10682;50.874;3.656;2022-08-25T16:21:44;23.92;;;10.68;;
21046;SDS011;10682;50.874;3.656;2022-08-25T16:24:13;21.30;;;9.77;;
21046;SDS011;10682;50.874;3.656;2022-08-25T16:26:40;22.83;;;11.05;;
21046;SDS011;10682;50.874;3.656;2022-08-25T16:29:13;24.60;;;10.90;;
21046;SDS011;10682;50.874;3.656;2022-08-25T16:31:41;24.17;;;10.25;;
21046;SDS011;10682;50.874;3.656;2022-08-25T16:34:18;23.33;;;10.32;;
21046;SDS011;10682;50.874;3.656;2022-08-25T16:36:45;27.15;;;11.07;;
21046;SDS011;10682;50.874;3.656;2022-08-25T16:39:17;26.60;;;11.70;;
21046;SDS011;10682;50.874;3.656;2022-08-25T16:41:45;25.95;;;11.93;;
21046;SDS011;10682;50.874;3.656;2022-08-25T16:44:12;25.63;;;11.95;;
21046;SDS011;10682;50.874;3.656;2022-08-25T16:46:39;26.25;;;10.85;;
21046;SDS011;10682;50.874;3.656;2022-08-25T16:49:10;23.45;;;11.07;;
21046;SDS011;10682;50.874;3.656;2022-08-25T16:51:41;24.90;;;10.80;;
21046;SDS011;10682;50.874;3.656;2022-08-25T16:54:09;25.15;;;10.77;;
21046;SDS011;10682;50.874;3.656;2022-08-25T16:56:56;25.45;;;10.82;;
21046;SDS011;10682;50.874;3.656;2022-08-25T16:59:23;20.13;;;9.13;;
21046;SDS011;10682;50.874;3.656;2022-08-25T17:01:51;21.85;;;9.38;;
21046;SDS011;10682;50.874;3.656;2022-08-25T17:04:19;20.88;;;8.30;;
21046;SDS011;10682;50.874;3.656;2022-08-25T17:06:57;21.60;;;7.63;;
21046;SDS011;10682;50.874;3.656;2022-08-25T17:09:24;24.08;;;8.10;;
21046;SDS011;10682;50.874;3.656;2022-08-25T17:11:51;23.25;;;6.85;;
21046;SDS011;10682;50.874;3.656;2022-08-25T17:14:22;20.38;;;7.20;;
21046;SDS011;10682;50.874;3.656;2022-08-25T17:16:49;20.55;;;6.28;;
21046;SDS011;10682;50.874;3.656;2022-08-25T17:19:20;15.38;;;5.28;;
21046;SDS011;10682;50.874;3.656;2022-08-25T17:21:49;15.80;;;5.32;;
21046;SDS011;10682;50.874;3.656;2022-08-25T17:24:17;18.85;;;6.00;;
21046;SDS011;10682;50.874;3.656;2022-08-25T17:26:45;18.10;;;5.55;;
21046;SDS011;10682;50.874;3.656;2022-08-25T17:29:16;16.85;;;5.38;;
21046;SDS011;10682;50.874;3.656;2022-08-25T17:31:44;14.52;;;4.78;;
21046;SDS011;10682;50.874;3.656;2022-08-25T17:34:14;11.52;;;4.90;;
21046;SDS011;10682;50.874;3.656;2022-08-25T17:36:46;16.95;;;5.13;;
21046;SDS011;10682;50.874;3.656;2022-08-25T17:39:13;12.75;;;4.68;;
21046;SDS011;10682;50.874;3.656;2022-08-25T17:41:43;17.73;;;4.47;;